Terminal Aerodrome Forecast
Issued by NWS

Home | Current Version | Previous Version | Text Only | Print | Product List | Glossary On
Versions: 1 2 3 4 5 6 7 8 9 10 11 12 13 14 15 16 17 18 19 20 21 22 23 24
543
FTUS46 KMTR 192044 AAA
TAFMRY
TAF AMD
KMRY 192044Z 1921/2018 28008KT P6SM FEW025 SCT050
     FM200200 24005KT P6SM VCSH OVC007
     FM200400 23006KT 4SM -RA BR BKN008 OVC012
     FM201000 24005KT P6SM BKN010 OVC020
     FM201700 26005KT P6SM FEW012 SCT025 SCT040=

USA.gov is the U.S. government's official web portal to all federal, state and local government web resources and services.